createdAt,value
2022-10-02T00:00:21.825Z,99646.79
2022-10-02T00:04:15.376Z,99658.86
2022-10-02T00:07:49.991Z,99661.67
2022-10-02T00:11:22.138Z,99662.56
2022-10-02T00:14:52.143Z,99666.16
2022-10-02T00:18:23.800Z,99669.74
2022-10-02T00:22:13.695Z,99668.05
2022-10-02T00:25:46.175Z,99669.03
2022-10-02T00:29:33.569Z,99673.36
2022-10-02T00:33:13.980Z,99675.19
2022-10-02T00:36:51.026Z,99676.09
2022-10-02T00:40:43.092Z,99678.10
2022-10-02T00:44:24.377Z,99677.70
2022-10-02T00:48:00.506Z,99685.88
2022-10-02T00:51:47.526Z,99687.55
2022-10-02T00:55:52.417Z,99693.49
2022-10-02T00:59:32.022Z,99697.13
2022-10-02T01:03:13.033Z,99698.03
2022-10-02T01:06:40.262Z,99701.86
2022-10-02T01:10:10.110Z,99705.85
2022-10-02T01:13:36.731Z,99710.30
2022-10-02T01:17:05.252Z,99716.44
2022-10-02T01:20:38.152Z,99717.35
2022-10-02T01:24:11.808Z,99717.00
2022-10-02T01:27:39.611Z,99719.66
2022-10-02T01:31:11.128Z,99727.79
2022-10-02T01:34:38.337Z,99727.65
2022-10-02T01:38:09.148Z,99730.46
2022-10-02T01:41:41.555Z,99730.90
2022-10-02T01:45:10.664Z,99732.59
2022-10-02T01:48:52.226Z,99730.91
2022-10-02T01:52:36.829Z,99737.04
2022-10-02T01:56:13.116Z,99740.41
2022-10-02T01:59:52.927Z,99742.79
2022-10-02T02:03:23.840Z,99751.48
2022-10-02T02:06:58.871Z,99756.42
2022-10-02T02:10:29.005Z,99758.05
2022-10-02T02:14:02.437Z,99762.11
2022-10-02T02:17:34.514Z,99766.17
2022-10-02T02:21:05.141Z,99770.44
2022-10-02T02:24:37.664Z,99771.38
2022-10-02T02:28:08.751Z,99770.89
2022-10-02T02:31:41.428Z,99776.73
2022-10-02T02:35:14.422Z,99776.27
2022-10-02T02:38:45.985Z,99773.73
2022-10-02T02:42:17.656Z,99784.20
2022-10-02T02:45:53.311Z,99780.08
2022-10-02T02:49:20.193Z,99782.93
2022-10-02T02:52:53.323Z,99782.98
2022-10-02T02:56:22.239Z,99788.51
2022-10-02T02:59:51.652Z,99794.77
2022-10-02T03:03:18.310Z,99798.12
2022-10-02T03:06:47.361Z,99798.68
2022-10-02T03:10:21.466Z,99797.17
2022-10-02T03:14:02.192Z,99798.41
2022-10-02T03:17:41.431Z,99801.08
2022-10-02T03:21:14.933Z,99802.27
2022-10-02T03:24:45.677Z,99810.03
2022-10-02T03:28:31.859Z,99813.64
2022-10-02T03:32:09.313Z,99810.98
2022-10-02T03:35:36.558Z,99816.44
2022-10-02T03:39:24.193Z,99816.60
2022-10-02T03:42:52.871Z,99813.98
2022-10-02T03:46:19.997Z,99812.68
2022-10-02T03:49:47.996Z,99817.97
2022-10-02T03:53:18.649Z,99815.48
2022-10-02T03:56:52.549Z,99822.94
2022-10-02T04:00:23.641Z,99827.68
2022-10-02T04:03:55.659Z,99825.70
2022-10-02T04:07:29.243Z,99826.86
2022-10-02T04:11:05.003Z,99824.52
2022-10-02T04:14:41.577Z,99834.41
2022-10-02T04:18:15.334Z,99831.02
2022-10-02T04:21:48.548Z,99837.27
2022-10-02T04:25:19.793Z,99838.01
2022-10-02T04:28:52.978Z,99846.79
2022-10-02T04:32:21.309Z,99851.79
2022-10-02T04:35:58.401Z,99854.41
2022-10-02T04:39:44.582Z,99853.99
2022-10-02T04:43:25.792Z,99858.30
2022-10-02T04:47:13.838Z,99862.33
2022-10-02T04:50:52.040Z,99866.83
2022-10-02T04:54:41.288Z,99873.42
2022-10-02T04:58:26.100Z,99879.78
2022-10-02T05:02:06.394Z,99885.83
2022-10-02T05:05:55.839Z,99890.77
2022-10-02T05:09:31.499Z,99888.85
2022-10-02T05:13:08.360Z,99889.73
2022-10-02T05:16:52.844Z,99891.42
2022-10-02T05:20:41.963Z,99895.84
2022-10-02T05:24:37.091Z,99899.23
2022-10-02T05:28:28.932Z,99899.52
2022-10-02T05:32:11.130Z,99904.16
2022-10-02T05:35:55.225Z,99908.70
2022-10-02T05:39:29.196Z,99908.73
2022-10-02T05:43:05.724Z,99912.23
2022-10-02T05:46:39.040Z,99916.95
2022-10-02T05:50:16.986Z,99917.26
2022-10-02T05:53:48.838Z,99921.17
2022-10-02T05:57:27.654Z,99919.91
2022-10-02T06:01:00.271Z,99924.42
2022-10-02T06:04:35.231Z,99931.16
2022-10-02T06:08:05.511Z,99931.13
2022-10-02T06:11:37.457Z,99924.02
2022-10-02T06:15:09.503Z,99926.64
2022-10-02T06:18:38.899Z,99925.82
2022-10-02T06:22:11.042Z,99927.31
2022-10-02T06:25:44.863Z,99925.48
2022-10-02T06:29:21.492Z,99930.34
2022-10-02T06:32:56.408Z,99934.88
2022-10-02T06:36:56.974Z,99937.80
2022-10-02T06:40:50.653Z,99939.52
2022-10-02T06:44:27.671Z,99943.23
2022-10-02T06:48:07.008Z,99939.26
2022-10-02T06:51:47.928Z,99940.91
2022-10-02T06:55:41.114Z,99941.27
2022-10-02T06:59:20.873Z,99945.29
2022-10-02T07:03:23.497Z,99949.04
2022-10-02T07:07:11.545Z,99949.73
2022-10-02T07:10:44.696Z,99957.27
2022-10-02T07:14:30.713Z,99958.48
2022-10-02T07:18:12.067Z,99958.17
2022-10-02T07:21:52.055Z,99962.07
2022-10-02T07:25:43.578Z,99964.77
2022-10-02T07:29:32.684Z,99967.64
2022-10-02T07:33:09.309Z,99971.29
2022-10-02T07:36:45.949Z,99975.42
2022-10-02T07:40:32.666Z,99969.52
2022-10-02T07:44:11.815Z,99974.27
2022-10-02T07:48:02.974Z,99975.05
2022-10-02T07:51:50.045Z,99980.64
2022-10-02T07:55:23.027Z,99969.86
2022-10-02T07:58:57.084Z,99968.42
2022-10-02T08:02:31.715Z,99968.46
2022-10-02T08:06:00.777Z,99967.63
2022-10-02T08:09:36.760Z,99969.52
2022-10-02T08:13:20.793Z,99972.83
2022-10-02T08:16:50.683Z,99972.48
2022-10-02T08:20:27.417Z,99972.09
2022-10-02T08:24:02.713Z,99974.30
2022-10-02T08:27:49.384Z,99975.75
2022-10-02T08:31:17.284Z,99970.33
2022-10-02T08:34:45.032Z,99976.70
2022-10-02T08:38:28.359Z,99976.36
2022-10-02T08:42:30.620Z,99974.62
2022-10-02T08:46:41.673Z,99977.54
2022-10-02T08:50:30.385Z,99971.88
2022-10-02T08:54:23.222Z,99977.60
2022-10-02T08:58:27.614Z,99980.40
2022-10-02T09:02:51.539Z,99982.37
2022-10-02T09:06:43.180Z,99986.02
2022-10-02T09:10:46.265Z,99988.45
2022-10-02T09:14:35.279Z,99991.50
2022-10-02T09:18:17.388Z,99990.36
2022-10-02T09:21:56.405Z,99992.62
2022-10-02T09:25:37.271Z,99991.78
2022-10-02T09:29:48.517Z,99995.07
2022-10-02T09:33:44.905Z,99991.52
2022-10-02T09:37:41.971Z,99992.95
2022-10-02T09:41:36.139Z,99993.25
2022-10-02T09:45:36.808Z,99990.73
2022-10-02T09:49:59.378Z,99992.85
2022-10-02T09:53:47.126Z,99993.16
2022-10-02T09:57:47.324Z,99995.79
2022-10-02T10:01:35.471Z,99995.66
2022-10-02T10:05:28.575Z,99998.08
2022-10-02T10:09:41.545Z,99992.36
2022-10-02T10:13:33.921Z,99993.63
2022-10-02T10:17:31.983Z,99989.28
2022-10-02T10:21:34.469Z,99991.77
2022-10-02T10:25:28.967Z,99991.05
2022-10-02T10:29:22.447Z,99986.52
2022-10-02T10:33:25.987Z,99984.73
2022-10-02T10:37:19.799Z,99980.09
2022-10-02T10:41:26.429Z,99974.94
2022-10-02T10:45:23.881Z,99969.41
2022-10-02T10:49:33.334Z,99965.41
2022-10-02T10:53:28.184Z,99965.73
2022-10-02T10:57:01.339Z,99960.89
2022-10-02T11:00:27.813Z,99962.20
2022-10-02T11:04:17.910Z,99957.75
2022-10-02T11:08:03.304Z,99961.06
2022-10-02T11:11:40.961Z,99964.00
2022-10-02T11:15:31.116Z,99962.17
2022-10-02T11:19:21.855Z,99963.70
2022-10-02T11:23:14.680Z,99960.17
2022-10-02T11:26:57.312Z,99966.69
2022-10-02T11:30:41.839Z,99964.88
2022-10-02T11:34:47.040Z,99964.59
2022-10-02T11:38:55.698Z,99964.20
2022-10-02T11:43:00.801Z,99963.80
2022-10-02T11:46:45.780Z,99962.88
2022-10-02T11:50:43.682Z,99961.14
2022-10-02T11:54:27.909Z,99955.34
2022-10-02T11:58:12.511Z,99964.17
2022-10-02T12:01:47.767Z,99959.23
2022-10-02T12:05:38.357Z,99962.91
2022-10-02T12:09:14.957Z,99960.03
2022-10-02T12:12:51.749Z,99970.83
2022-10-02T12:16:34.020Z,99970.19
2022-10-02T12:20:33.881Z,99968.91
2022-10-02T12:24:30.026Z,99969.89
2022-10-02T12:28:05.996Z,99966.56
2022-10-02T12:31:51.425Z,99960.11
2022-10-02T12:35:47.115Z,99952.86
2022-10-02T12:39:39.226Z,99947.96
2022-10-02T12:43:43.552Z,99942.83
2022-10-02T12:47:42.547Z,99939.20
2022-10-02T12:51:36.009Z,99936.89
2022-10-02T12:55:30.331Z,99927.92
2022-10-02T12:59:12.030Z,99925.89
2022-10-02T13:03:12.539Z,99923.96
2022-10-02T13:07:16.386Z,99921.84
2022-10-02T13:10:58.665Z,99915.08
2022-10-02T13:14:56.013Z,99907.69
2022-10-02T13:18:53.050Z,99906.04
2022-10-02T13:22:31.632Z,99903.80
2022-10-02T13:26:13.290Z,99904.57
2022-10-02T13:29:53.453Z,99901.50
2022-10-02T13:33:34.505Z,99900.24
2022-10-02T13:37:20.716Z,99902.92
2022-10-02T13:40:54.285Z,99901.92
2022-10-02T13:44:26.050Z,99887.89
2022-10-02T13:48:06.035Z,99889.40
2022-10-02T13:51:44.145Z,99893.11
2022-10-02T13:55:22.954Z,99887.78
2022-10-02T13:59:08.587Z,99890.77
2022-10-02T14:03:05.348Z,99889.30
2022-10-02T14:06:39.401Z,99890.13
2022-10-02T14:10:16.702Z,99894.79
2022-10-02T14:14:03.445Z,99893.34
2022-10-02T14:17:42.079Z,99896.98
2022-10-02T14:21:21.803Z,99896.25
2022-10-02T14:25:06.314Z,99893.61
2022-10-02T14:28:48.847Z,99891.40
2022-10-02T14:32:52.697Z,99889.10
2022-10-02T14:36:27.786Z,99885.73
2022-10-02T14:39:57.484Z,99884.39
2022-10-02T14:43:55.643Z,99881.60
2022-10-02T14:47:37.413Z,99886.99
2022-10-02T14:51:36.051Z,99890.27
2022-10-02T14:55:27.272Z,99895.21
2022-10-02T14:59:10.320Z,99898.04
2022-10-02T15:02:58.678Z,99903.70
2022-10-02T15:06:39.351Z,99911.20
2022-10-02T15:10:20.869Z,99910.20
2022-10-02T15:13:52.897Z,99914.23
2022-10-02T15:17:49.132Z,99915.91
2022-10-02T15:21:28.222Z,99905.42
2022-10-02T15:25:00.978Z,99911.10
2022-10-02T15:28:42.135Z,99921.73
2022-10-02T15:32:36.570Z,99929.48
2022-10-02T15:36:36.161Z,99929.19
2022-10-02T15:40:25.336Z,99924.36
2022-10-02T15:44:08.801Z,99923.45
2022-10-02T15:48:03.264Z,99922.40
2022-10-02T15:52:02.283Z,99922.39
2022-10-02T15:55:39.063Z,99949.02
2022-10-02T15:59:38.707Z,99942.52
2022-10-02T16:03:17.405Z,99930.36
2022-10-02T16:07:05.238Z,99927.61
2022-10-02T16:10:43.404Z,99933.55
2022-10-02T16:14:16.780Z,99942.71
2022-10-02T16:18:09.306Z,99949.69
2022-10-02T16:22:06.016Z,99951.40
2022-10-02T16:25:52.810Z,99950.16
2022-10-02T16:29:32.735Z,99943.57
2022-10-02T16:33:18.378Z,99945.02
2022-10-02T16:36:52.400Z,99943.98
2022-10-02T16:40:30.384Z,99941.88
2022-10-02T16:44:08.315Z,99948.34
2022-10-02T16:47:45.968Z,99943.92
2022-10-02T16:51:33.100Z,99944.83
2022-10-02T16:55:13.477Z,99949.06
2022-10-02T16:58:49.727Z,99952.73
2022-10-02T17:02:23.921Z,99954.64
2022-10-02T17:05:54.712Z,99957.77
2022-10-02T17:09:30.425Z,99959.91
2022-10-02T17:13:08.666Z,99961.67
2022-10-02T17:16:41.944Z,99964.39
2022-10-02T17:20:21.873Z,99966.84
2022-10-02T17:23:57.427Z,99969.80
2022-10-02T17:27:47.633Z,99970.83
2022-10-02T17:31:26.352Z,99970.94
2022-10-02T17:34:53.476Z,99970.26
2022-10-02T17:38:48.973Z,99973.58
2022-10-02T17:42:32.843Z,99974.73
2022-10-02T17:46:26.723Z,99977.92
2022-10-02T17:50:06.576Z,99987.52
2022-10-02T17:54:13.575Z,99983.84
2022-10-02T17:57:54.746Z,99991.58
2022-10-02T18:01:31.936Z,99992.43
2022-10-02T18:05:21.006Z,99990.88
2022-10-02T18:09:13.531Z,99993.30
2022-10-02T18:13:02.061Z,99988.98
2022-10-02T18:16:51.984Z,99991.95
2022-10-02T18:20:34.486Z,99985.83
2022-10-02T18:24:34.764Z,99995.56
2022-10-02T18:28:37.009Z,100000.62
2022-10-02T18:32:25.482Z,99996.21
2022-10-02T18:36:05.109Z,100008.15
2022-10-02T18:40:02.099Z,100007.05
2022-10-02T18:44:03.297Z,100010.73
2022-10-02T18:47:45.728Z,100012.87
2022-10-02T18:51:32.867Z,100015.66
2022-10-02T18:55:36.470Z,100010.23
2022-10-02T18:59:22.745Z,100011.67
2022-10-02T19:03:17.450Z,100007.30
2022-10-02T19:06:59.389Z,100005.65
2022-10-02T19:10:45.080Z,100015.30
2022-10-02T19:14:22.661Z,100013.60
2022-10-02T19:18:01.403Z,100012.48
2022-10-02T19:21:30.650Z,100009.84
2022-10-02T19:25:17.481Z,100008.20
2022-10-02T19:28:51.762Z,100006.00
2022-10-02T19:32:26.391Z,100003.89
2022-10-02T19:35:54.479Z,99998.30
2022-10-02T19:39:28.850Z,99997.61
2022-10-02T19:43:05.862Z,100000.59
2022-10-02T19:46:41.058Z,99998.28
2022-10-02T19:50:23.105Z,99998.09
2022-10-02T19:54:07.488Z,100000.55
2022-10-02T19:57:43.056Z,100004.03
2022-10-02T20:01:20.850Z,100003.42
2022-10-02T20:04:50.756Z,100005.33
2022-10-02T20:08:25.748Z,100002.23
2022-10-02T20:11:59.786Z,100005.65
2022-10-02T20:15:48.494Z,100007.55
2022-10-02T20:19:23.113Z,100004.44
2022-10-02T20:22:59.175Z,100005.04
2022-10-02T20:26:30.921Z,100003.75
2022-10-02T20:30:07.138Z,99995.84
2022-10-02T20:33:41.417Z,99993.80
2022-10-02T20:37:14.741Z,99993.09
2022-10-02T20:40:50.270Z,99995.89
2022-10-02T20:44:28.820Z,99995.60
2022-10-02T20:49:06.908Z,99994.25
2022-10-02T20:53:02.446Z,99989.83
2022-10-02T20:56:49.306Z,99988.90
2022-10-02T21:00:21.445Z,99990.19
2022-10-02T21:04:39.724Z,99991.61
2022-10-02T21:12:36.153Z,99993.46
2022-10-02T21:16:31.595Z,99993.64
2022-10-02T21:20:46.123Z,99990.19
2022-10-02T21:25:01.323Z,99990.05
2022-10-02T21:28:58.386Z,99985.77
2022-10-02T21:32:43.072Z,99986.19
2022-10-02T21:36:17.529Z,99991.41
2022-10-02T21:43:50.789Z,99994.71
2022-10-02T21:47:48.794Z,99991.95
2022-10-02T21:51:51.900Z,99988.70
2022-10-02T21:56:10.106Z,99992.10
2022-10-02T22:00:14.281Z,99993.06
2022-10-02T22:04:11.831Z,99985.44
2022-10-02T22:07:49.031Z,99990.40
2022-10-02T22:11:30.624Z,99987.92
2022-10-02T22:15:11.917Z,99986.70
2022-10-02T22:18:45.009Z,99992.11
2022-10-02T22:22:26.643Z,99990.59
2022-10-02T22:26:10.534Z,99991.25
2022-10-02T22:29:48.087Z,99995.33
2022-10-02T22:33:39.536Z,99995.95
2022-10-02T22:37:28.394Z,99993.04
2022-10-02T22:40:59.306Z,99996.48
2022-10-02T22:44:32.745Z,99994.55
2022-10-02T22:48:06.323Z,99991.89
2022-10-02T22:51:45.559Z,99989.08
2022-10-02T22:55:20.331Z,99989.55
2022-10-02T22:58:55.510Z,99993.64
2022-10-02T23:02:29.193Z,99991.77
2022-10-02T23:06:01.246Z,99990.08
2022-10-02T23:09:36.681Z,99985.10
2022-10-02T23:13:17.484Z,99985.92
2022-10-02T23:16:50.157Z,99985.30
2022-10-02T23:20:26.537Z,99983.60
2022-10-02T23:24:00.091Z,99983.02
2022-10-02T23:27:37.828Z,99986.67
2022-10-02T23:31:17.504Z,99988.91
2022-10-02T23:34:53.202Z,99978.48
2022-10-02T23:38:34.737Z,99977.91
2022-10-02T23:42:05.480Z,99977.46
2022-10-02T23:45:38.132Z,99978.34
2022-10-02T23:49:06.080Z,99978.86
2022-10-02T23:53:12.611Z,99977.58
2022-10-02T23:56:52.920Z,99974.62
